Terminal Aerodrome Forecast
Issued by NWS

Home | Current Version | Previous Version | Text Only | Print | Product List | Glossary On
Versions: 1 2 3 4 5 6 7 8 9 10 11 12 13 14 15 16
000
FTUS45 KREV 240500
TAFTVL
TAF
KTVL 240520Z 2406/2506 VRB03KT P6SM FEW060 SCT200
     FM241800 19015G27KT P6SM SCT100 BKN180
     FM250300 19012G20KT P6SM SCT030 BKN060 WS020/25035KT=

USA.gov is the U.S. government's official web portal to all federal, state and local government web resources and services.